createdAt,value
2022-09-13T00:02:16.310Z,17.26
2022-09-13T00:04:43.029Z,17.19
2022-09-13T00:07:09.768Z,17.23
2022-09-13T00:09:37.354Z,17.10
2022-09-13T00:12:04.164Z,17.21
2022-09-13T00:14:30.873Z,17.06
2022-09-13T00:16:57.472Z,16.97
2022-09-13T00:19:24.140Z,16.98
2022-09-13T00:21:50.893Z,16.75
2022-09-13T00:24:17.552Z,16.70
2022-09-13T00:26:44.194Z,16.47
2022-09-13T00:29:10.855Z,16.46
2022-09-13T00:31:37.572Z,16.38
2022-09-13T00:34:04.250Z,16.33
2022-09-13T00:36:30.962Z,16.38
2022-09-13T00:38:58.255Z,16.48
2022-09-13T00:41:25.064Z,16.40
2022-09-13T00:43:55.713Z,16.40
2022-09-13T00:46:45.603Z,16.27
2022-09-13T00:49:18.596Z,16.45
2022-09-13T00:51:50.928Z,16.29
2022-09-13T00:54:21.179Z,16.25
2022-09-13T00:56:55.445Z,16.38
2022-09-13T01:00:08.147Z,16.33
2022-09-13T01:02:35.210Z,16.28
2022-09-13T01:05:03.337Z,16.47
2022-09-13T01:07:30.402Z,16.36
2022-09-13T01:09:57.515Z,16.28
2022-09-13T01:12:36.478Z,16.26
2022-09-13T01:15:06.228Z,16.32
2022-09-13T01:17:33.923Z,16.26
2022-09-13T01:20:02.858Z,16.33
2022-09-13T01:22:51.301Z,16.28
2022-09-13T01:25:45.363Z,16.30
2022-09-13T01:28:26.935Z,16.35
2022-09-13T01:31:14.552Z,16.22
2022-09-13T01:33:59.531Z,16.38
2022-09-13T01:36:38.025Z,16.56
2022-09-13T01:39:08.221Z,16.31
2022-09-13T01:41:43.766Z,16.30
2022-09-13T01:44:29.658Z,16.22
2022-09-13T01:47:14.992Z,16.16
2022-09-13T01:49:51.844Z,16.17
2022-09-13T01:52:37.420Z,16.22
2022-09-13T01:55:18.102Z,16.15
2022-09-13T01:58:02.227Z,16.30
2022-09-13T02:00:36.857Z,16.22
2022-09-13T02:03:29.653Z,16.16
2022-09-13T02:06:08.623Z,16.26
2022-09-13T02:08:42.523Z,16.27
2022-09-13T02:11:15.066Z,16.24
2022-09-13T02:13:48.583Z,16.42
2022-09-13T02:16:27.820Z,16.30
2022-09-13T02:18:59.523Z,16.33
2022-09-13T02:21:34.683Z,16.37
2022-09-13T02:24:03.547Z,16.31
2022-09-13T02:26:34.811Z,16.32
2022-09-13T02:29:07.910Z,16.29
2022-09-13T02:31:39.970Z,16.32
2022-09-13T02:34:14.323Z,16.28
2022-09-13T02:36:43.596Z,16.16
2022-09-13T02:39:16.062Z,16.24
2022-09-13T02:41:46.821Z,16.22
2022-09-13T02:44:22.787Z,16.11
2022-09-13T02:46:55.585Z,16.15
2022-09-13T02:49:57.620Z,16.05
2022-09-13T02:52:34.733Z,16.22
2022-09-13T02:55:40.364Z,16.06
2022-09-13T02:58:23.593Z,15.97
2022-09-13T03:00:53.258Z,16.02
2022-09-13T03:03:20.967Z,15.95
2022-09-13T03:05:47.770Z,15.92
2022-09-13T03:08:17.145Z,15.88
2022-09-13T03:10:59.583Z,16.16
2022-09-13T03:13:48.126Z,15.97
2022-09-13T03:16:30.151Z,16.03
2022-09-13T03:19:21.664Z,16.09
2022-09-13T03:21:48.190Z,16.15
2022-09-13T03:24:26.208Z,16.27
2022-09-13T03:27:17.447Z,16.08
2022-09-13T03:29:56.256Z,16.03
2022-09-13T03:32:48.776Z,16.08
2022-09-13T03:35:21.109Z,16.17
2022-09-13T03:37:58.132Z,16.09
2022-09-13T03:40:48.240Z,16.11
2022-09-13T03:43:35.737Z,16.15
2022-09-13T03:46:10.211Z,16.19
2022-09-13T03:48:40.634Z,16.20
2022-09-13T03:51:08.592Z,16.14
2022-09-13T03:53:41.602Z,16.12
2022-09-13T03:56:20.416Z,16.10
2022-09-13T03:58:48.052Z,16.13
2022-09-13T04:01:20.287Z,16.15
2022-09-13T04:03:47.197Z,16.17
2022-09-13T04:06:13.848Z,16.34
2022-09-13T04:08:42.696Z,16.25
2022-09-13T04:11:09.651Z,16.28
2022-09-13T04:13:39.262Z,16.24
2022-09-13T04:16:09.294Z,16.28
2022-09-13T04:18:36.206Z,16.42
2022-09-13T04:21:06.580Z,16.46
2022-09-13T04:23:33.252Z,16.34
2022-09-13T04:26:04.918Z,16.30
2022-09-13T04:28:31.730Z,16.33
2022-09-13T04:31:09.856Z,16.32
2022-09-13T04:33:38.487Z,16.33
2022-09-13T04:36:05.409Z,16.34
2022-09-13T04:38:32.152Z,16.39
2022-09-13T04:40:59.330Z,16.39
2022-09-13T04:43:26.111Z,16.42
2022-09-13T04:45:54.990Z,16.38
2022-09-13T04:48:21.782Z,16.35
2022-09-13T04:50:49.101Z,16.33
2022-09-13T04:53:15.832Z,16.30
2022-09-13T04:55:42.518Z,16.26
2022-09-13T04:58:09.209Z,16.22
2022-09-13T05:00:35.932Z,16.18
2022-09-13T05:03:02.644Z,16.16
2022-09-13T05:05:30.540Z,16.12
2022-09-13T05:07:57.287Z,16.13
2022-09-13T05:10:24.430Z,16.13
2022-09-13T05:12:52.090Z,16.08
2022-09-13T05:15:18.784Z,16.12
2022-09-13T05:17:46.676Z,16.13
2022-09-13T05:20:13.742Z,16.09
2022-09-13T05:22:40.587Z,16.13
2022-09-13T05:25:08.276Z,16.12
2022-09-13T05:27:35.307Z,16.12
2022-09-13T05:30:02.013Z,16.15
2022-09-13T05:32:30.988Z,16.10
2022-09-13T05:34:57.662Z,16.13
2022-09-13T05:37:24.445Z,16.15
2022-09-13T05:40:10.773Z,16.18
2022-09-13T05:42:38.569Z,16.23
2022-09-13T05:45:06.873Z,16.29
2022-09-13T05:47:41.930Z,16.30
2022-09-13T05:50:11.615Z,16.30
2022-09-13T05:58:59.073Z,16.34
2022-09-13T06:01:39.783Z,16.29
2022-09-13T06:04:09.269Z,16.25
2022-09-13T06:06:37.371Z,16.24
2022-09-13T06:09:20.994Z,16.19
2022-09-13T06:11:48.309Z,16.17
2022-09-13T06:14:16.638Z,16.16
2022-09-13T06:16:48.909Z,16.20
2022-09-13T06:19:15.600Z,16.22
2022-09-13T06:21:42.500Z,16.20
2022-09-13T06:24:09.340Z,16.63
2022-09-13T06:26:39.829Z,16.95
2022-09-13T06:29:11.204Z,17.24
2022-09-13T06:31:39.200Z,17.57
2022-09-13T06:34:15.926Z,18.19
2022-09-13T06:36:42.633Z,18.36
2022-09-13T06:39:09.374Z,18.22
2022-09-13T06:41:37.539Z,18.48
2022-09-13T06:44:09.183Z,18.36
2022-09-13T06:46:38.014Z,18.07
2022-09-13T06:49:06.740Z,17.67
2022-09-13T06:51:34.929Z,17.51
2022-09-13T06:54:04.007Z,17.60
2022-09-13T06:56:34.630Z,17.62
2022-09-13T06:59:08.314Z,17.34
2022-09-13T07:01:41.803Z,17.18
2022-09-13T07:04:19.242Z,17.17
2022-09-13T07:06:49.685Z,17.09
2022-09-13T07:09:20.997Z,17.11
2022-09-13T07:11:49.961Z,17.13
2022-09-13T07:14:20.737Z,17.28
2022-09-13T07:16:49.894Z,17.51
2022-09-13T07:19:20.433Z,17.74
2022-09-13T07:21:54.210Z,17.85
2022-09-13T07:24:25.666Z,17.77
2022-09-13T07:26:54.274Z,17.69
2022-09-13T07:29:24.600Z,17.75
2022-09-13T07:31:54.763Z,17.69
2022-09-13T07:34:24.880Z,17.66
2022-09-13T07:36:53.371Z,17.68
2022-09-13T07:39:24.914Z,17.76
2022-09-13T07:41:54.129Z,17.93
2022-09-13T07:44:21.154Z,17.97
2022-09-13T07:46:48.389Z,18.13
2022-09-13T07:49:18.124Z,17.90
2022-09-13T07:51:45.156Z,18.02
2022-09-13T07:54:15.362Z,17.94
2022-09-13T07:56:43.557Z,17.97
2022-09-13T07:59:15.814Z,18.27
2022-09-13T08:01:44.864Z,18.49
2022-09-13T08:04:14.475Z,18.40
2022-09-13T08:06:43.408Z,18.42
2022-09-13T08:09:11.310Z,18.46
2022-09-13T08:11:40.914Z,18.23
2022-09-13T08:14:10.100Z,17.89
2022-09-13T08:16:37.219Z,17.99
2022-09-13T08:19:07.117Z,18.20
2022-09-13T08:21:37.281Z,18.53
2022-09-13T08:24:06.337Z,18.86
2022-09-13T08:26:35.433Z,18.71
2022-09-13T08:29:05.759Z,18.49
2022-09-13T08:31:32.871Z,18.25
2022-09-13T08:33:59.993Z,18.42
2022-09-13T08:36:28.814Z,18.70
2022-09-13T08:38:59.206Z,18.96
2022-09-13T08:41:45.410Z,19.45
2022-09-13T08:44:31.683Z,19.13
2022-09-13T08:47:22.191Z,19.07
2022-09-13T08:49:56.104Z,19.04
2022-09-13T08:52:53.753Z,18.62
2022-09-13T08:55:26.532Z,18.46
2022-09-13T08:57:59.780Z,18.38
2022-09-13T09:00:41.221Z,18.40
2022-09-13T09:03:18.124Z,18.81
2022-09-13T09:05:50.571Z,19.05
2022-09-13T09:08:23.270Z,19.04
2022-09-13T09:10:53.421Z,19.24
2022-09-13T09:13:38.046Z,19.38
2022-09-13T09:16:28.878Z,19.64
2022-09-13T09:19:00.140Z,19.63
2022-09-13T09:21:28.458Z,19.64
2022-09-13T09:23:56.022Z,19.86
2022-09-13T09:26:30.939Z,19.29
2022-09-13T09:29:10.967Z,19.40
2022-09-13T09:32:11.680Z,19.35
2022-09-13T09:35:05.447Z,19.26
2022-09-13T09:37:38.750Z,18.87
2022-09-13T09:40:14.339Z,19.11
2022-09-13T09:42:47.730Z,19.09
2022-09-13T09:45:35.495Z,18.71
2022-09-13T09:48:09.775Z,18.68
2022-09-13T09:50:41.784Z,19.14
2022-09-13T09:53:17.062Z,19.42
2022-09-13T09:56:00.564Z,18.89
2022-09-13T09:58:42.918Z,19.38
2022-09-13T10:01:33.507Z,19.44
2022-09-13T10:04:11.398Z,19.52
2022-09-13T10:06:40.462Z,19.92
2022-09-13T10:09:14.921Z,19.57
2022-09-13T10:11:48.784Z,19.24
2022-09-13T10:14:35.336Z,19.48
2022-09-13T10:17:28.331Z,19.65
2022-09-13T10:20:01.917Z,19.58
2022-09-13T10:22:31.519Z,20.00
2022-09-13T10:25:24.221Z,20.18
2022-09-13T10:27:58.231Z,19.93
2022-09-13T10:30:39.525Z,20.12
2022-09-13T10:33:20.493Z,20.03
2022-09-13T10:35:55.101Z,20.02
2022-09-13T10:38:32.914Z,20.22
2022-09-13T10:41:03.456Z,20.04
2022-09-13T10:43:32.951Z,19.53
2022-09-13T10:46:03.658Z,19.86
2022-09-13T10:48:44.605Z,20.04
2022-09-13T10:51:31.397Z,19.21
2022-09-13T10:54:09.045Z,19.12
2022-09-13T10:56:36.796Z,19.20
2022-09-13T10:59:29.781Z,19.04
2022-09-13T11:02:58.467Z,19.68
2022-09-13T11:05:37.294Z,20.29
2022-09-13T11:08:11.404Z,19.80
2022-09-13T11:10:57.459Z,19.81
2022-09-13T11:13:24.047Z,20.50
2022-09-13T11:16:05.687Z,20.35
2022-09-13T11:18:32.968Z,20.19
2022-09-13T11:21:32.593Z,20.04
2022-09-13T11:24:30.248Z,19.87
2022-09-13T11:27:02.469Z,19.47
2022-09-13T11:29:51.616Z,19.21
2022-09-13T11:32:43.051Z,19.31
2022-09-13T11:35:22.780Z,19.48
2022-09-13T11:37:56.393Z,19.31
2022-09-13T11:40:28.855Z,19.13
2022-09-13T11:43:24.008Z,19.18
2022-09-13T11:46:05.316Z,19.06
2022-09-13T11:48:56.804Z,18.91
2022-09-13T11:51:43.769Z,18.89
2022-09-13T11:54:34.860Z,18.79
2022-09-13T11:57:11.248Z,18.79
2022-09-13T11:59:45.061Z,19.36
2022-09-13T12:02:19.971Z,19.75
2022-09-13T12:05:21.695Z,19.59
2022-09-13T12:07:55.627Z,19.04
2022-09-13T12:10:57.712Z,19.02
2022-09-13T12:13:31.110Z,19.08
2022-09-13T12:16:06.328Z,19.13
2022-09-13T12:18:41.602Z,19.37
2022-09-13T12:21:19.288Z,19.81
2022-09-13T12:24:06.306Z,19.98
2022-09-13T12:26:59.248Z,19.48
2022-09-13T12:29:49.079Z,19.37
2022-09-13T12:32:17.061Z,18.95
2022-09-13T12:35:06.525Z,18.97
2022-09-13T12:37:45.146Z,19.43
2022-09-13T12:40:39.614Z,19.78
2022-09-13T12:43:34.430Z,19.84
2022-09-13T12:46:19.968Z,19.46
2022-09-13T12:49:05.218Z,19.02
2022-09-13T12:51:50.428Z,19.42
2022-09-13T12:54:38.925Z,19.52
2022-09-13T12:57:08.922Z,19.79
2022-09-13T12:59:44.905Z,19.87
2022-09-13T13:02:33.911Z,20.36
2022-09-13T13:05:18.102Z,19.86
2022-09-13T13:07:53.313Z,19.79
2022-09-13T13:10:34.341Z,19.51
2022-09-13T13:13:31.239Z,19.38
2022-09-13T13:16:02.776Z,19.35
2022-09-13T13:18:31.388Z,19.43
2022-09-13T13:20:58.792Z,19.32
2022-09-13T13:23:30.137Z,19.44
2022-09-13T13:26:18.447Z,19.23
2022-09-13T13:28:48.123Z,19.09
2022-09-13T13:31:24.036Z,19.38
2022-09-13T13:33:59.527Z,19.23
2022-09-13T13:36:40.393Z,19.28
2022-09-13T13:39:25.432Z,19.17
2022-09-13T13:41:57.943Z,19.53
2022-09-13T13:44:28.357Z,19.55
2022-09-13T13:47:07.325Z,19.42
2022-09-13T13:49:35.187Z,19.29
2022-09-13T13:52:08.141Z,19.56
2022-09-13T13:54:49.865Z,19.59
2022-09-13T13:57:35.616Z,19.78
2022-09-13T14:00:16.500Z,19.55
2022-09-13T14:02:53.598Z,19.20
2022-09-13T14:05:33.886Z,19.30
2022-09-13T14:08:19.288Z,19.09
2022-09-13T14:11:02.690Z,19.23
2022-09-13T14:13:44.557Z,18.99
2022-09-13T14:16:49.717Z,18.95
2022-09-13T14:19:29.325Z,18.68
2022-09-13T14:22:04.898Z,19.23
2022-09-13T14:24:39.848Z,19.32
2022-09-13T14:27:09.535Z,19.27
2022-09-13T14:29:37.221Z,19.58
2022-09-13T14:32:07.221Z,19.49
2022-09-13T14:34:37.545Z,19.51
2022-09-13T14:37:18.523Z,19.34
2022-09-13T14:40:00.460Z,19.42
2022-09-13T14:42:37.767Z,19.57
2022-09-13T14:45:05.561Z,19.34
2022-09-13T14:47:41.306Z,19.03
2022-09-13T14:50:16.051Z,18.76
2022-09-13T14:52:58.254Z,18.87
2022-09-13T14:55:33.330Z,18.78
2022-09-13T14:58:16.013Z,18.84
2022-09-13T15:00:51.078Z,18.75
2022-09-13T15:03:20.344Z,18.83
2022-09-13T15:06:02.315Z,18.61
2022-09-13T15:08:35.681Z,18.53
2022-09-13T15:11:06.678Z,18.44
2022-09-13T15:13:34.612Z,18.35
2022-09-13T15:16:18.763Z,18.32
2022-09-13T15:18:45.453Z,18.26
2022-09-13T15:21:18.660Z,18.19
2022-09-13T15:23:51.707Z,18.20
2022-09-13T15:26:25.552Z,18.26
2022-09-13T15:28:57.777Z,18.21
2022-09-13T15:31:31.112Z,18.28
2022-09-13T15:34:16.645Z,18.23
2022-09-13T15:36:45.061Z,18.27
2022-09-13T15:39:23.564Z,18.25
2022-09-13T15:42:00.656Z,18.20
2022-09-13T15:44:29.952Z,18.18
2022-09-13T15:47:02.413Z,18.18
2022-09-13T15:49:30.840Z,18.16
2022-09-13T15:52:00.650Z,18.20
2022-09-13T15:54:34.867Z,18.11
2022-09-13T15:57:02.722Z,18.07
2022-09-13T15:59:29.460Z,17.92
2022-09-13T16:01:56.672Z,17.98
2022-09-13T16:04:23.537Z,17.93
2022-09-13T16:06:50.210Z,17.87
2022-09-13T16:09:21.423Z,17.77
2022-09-13T16:11:49.859Z,17.73
2022-09-13T16:14:18.538Z,17.80
2022-09-13T16:16:46.657Z,17.84
2022-09-13T16:19:21.107Z,17.95
2022-09-13T16:21:49.056Z,18.05
2022-09-13T16:24:16.869Z,17.97
2022-09-13T16:26:43.684Z,17.92
2022-09-13T16:29:11.856Z,17.98
2022-09-13T16:31:38.712Z,18.02
2022-09-13T16:34:05.578Z,17.94
2022-09-13T16:36:34.219Z,17.74
2022-09-13T16:39:01.876Z,17.61
2022-09-13T16:41:29.949Z,17.65
2022-09-13T16:43:57.336Z,17.64
2022-09-13T16:46:24.371Z,17.61
2022-09-13T16:48:56.560Z,17.67
2022-09-13T16:51:24.328Z,17.60
2022-09-13T16:53:52.608Z,17.58
2022-09-13T16:56:23.160Z,17.57
2022-09-13T16:58:52.567Z,17.51
2022-09-13T17:01:31.340Z,17.49
2022-09-13T17:03:58.299Z,17.44
2022-09-13T17:06:26.714Z,17.26
2022-09-13T17:08:56.916Z,17.02
2022-09-13T17:11:26.268Z,16.63
2022-09-13T17:13:53.722Z,16.46
2022-09-13T17:16:26.647Z,16.33
2022-09-13T17:18:53.945Z,16.26
2022-09-13T17:21:21.828Z,16.22
2022-09-13T17:23:49.156Z,16.23
2022-09-13T17:26:16.119Z,16.11
2022-09-13T17:28:42.772Z,16.07
2022-09-13T17:31:09.846Z,16.04
2022-09-13T17:33:37.633Z,15.99
2022-09-13T17:36:09.520Z,15.95
2022-09-13T17:38:37.099Z,15.89
2022-09-13T17:41:25.354Z,15.84
2022-09-13T17:43:52.460Z,15.82
2022-09-13T17:46:23.183Z,15.81
2022-09-13T17:48:54.859Z,15.74
2022-09-13T17:51:24.669Z,15.73
2022-09-13T17:53:56.454Z,15.82
2022-09-13T17:56:37.294Z,15.82
2022-09-13T17:59:15.677Z,15.85
2022-09-13T18:01:45.093Z,15.89
2022-09-13T18:04:13.805Z,15.91
2022-09-13T18:06:43.315Z,15.92
2022-09-13T18:09:14.800Z,15.98
2022-09-13T18:11:46.887Z,15.98
2022-09-13T18:14:24.280Z,16.04
2022-09-13T18:20:13.654Z,16.00
2022-09-13T18:25:30.034Z,15.96
2022-09-13T18:28:02.569Z,15.96
2022-09-13T18:30:33.145Z,15.88
2022-09-13T18:33:00.860Z,15.90
2022-09-13T18:35:27.968Z,15.90
2022-09-13T18:37:56.530Z,15.92
2022-09-13T18:40:23.228Z,15.76
2022-09-13T18:42:51.900Z,15.77
2022-09-13T18:45:27.441Z,15.72
2022-09-13T18:47:54.150Z,15.77
2022-09-13T18:50:20.814Z,15.78
2022-09-13T18:52:47.481Z,15.81
2022-09-13T18:55:14.230Z,15.82
2022-09-13T18:57:40.900Z,15.81
2022-09-13T19:00:14.954Z,15.78
2022-09-13T19:03:02.052Z,15.76
2022-09-13T19:05:30.945Z,15.71
2022-09-13T19:07:57.684Z,15.75
2022-09-13T19:10:24.824Z,15.71
2022-09-13T19:12:51.624Z,15.72
2022-09-13T19:15:18.337Z,15.64
2022-09-13T19:17:45.010Z,15.62
2022-09-13T19:20:11.809Z,15.53
2022-09-13T19:22:38.585Z,15.52
2022-09-13T19:25:05.690Z,15.45
2022-09-13T19:27:32.385Z,15.44
2022-09-13T19:29:59.375Z,15.38
2022-09-13T19:32:26.080Z,15.33
2022-09-13T19:34:52.707Z,15.27
2022-09-13T19:37:19.534Z,15.30
2022-09-13T19:39:47.364Z,15.37
2022-09-13T19:42:15.250Z,15.39
2022-09-13T19:44:41.970Z,15.40
2022-09-13T19:48:02.304Z,15.37
2022-09-13T19:49:59.166Z,15.38
2022-09-13T19:52:27.129Z,15.43
2022-09-13T19:54:58.534Z,15.46
2022-09-13T19:57:25.773Z,15.52
2022-09-13T19:59:58.205Z,15.51
2022-09-13T20:02:27.538Z,15.53
2022-09-13T20:05:00.857Z,15.50
2022-09-13T20:07:27.608Z,15.51
2022-09-13T20:09:55.149Z,15.51
2022-09-13T20:12:23.815Z,15.52
2022-09-13T20:14:50.535Z,15.57
2022-09-13T20:17:21.018Z,15.61
2022-09-13T20:19:50.151Z,15.56
2022-09-13T20:22:17.145Z,15.60
2022-09-13T20:24:43.901Z,15.60
2022-09-13T20:27:10.772Z,15.61
2022-09-13T20:29:38.188Z,15.64
2022-09-13T20:32:05.080Z,15.60
2022-09-13T20:34:31.907Z,15.61
2022-09-13T20:36:58.584Z,15.60
2022-09-13T20:39:25.221Z,15.59
2022-09-13T20:41:52.119Z,15.51
2022-09-13T20:44:18.832Z,15.51
2022-09-13T20:46:45.528Z,15.49
2022-09-13T20:49:12.321Z,15.48
2022-09-13T20:51:39.112Z,15.53
2022-09-13T20:54:06.557Z,15.57
2022-09-13T20:56:34.605Z,15.57
2022-09-13T20:59:01.861Z,15.58
2022-09-13T21:01:30.068Z,15.59
2022-09-13T21:03:57.480Z,15.61
2022-09-13T21:06:27.129Z,15.60
2022-09-13T21:08:56.474Z,15.59
2022-09-13T21:11:29.096Z,15.59
2022-09-13T21:14:01.522Z,15.64
2022-09-13T21:16:30.714Z,15.66
2022-09-13T21:18:57.470Z,15.62
2022-09-13T21:21:30.646Z,15.66
2022-09-13T21:24:00.447Z,15.64
2022-09-13T21:26:30.127Z,15.61
2022-09-13T21:28:58.717Z,15.60
2022-09-13T21:31:28.295Z,15.62
2022-09-13T21:33:58.275Z,15.64
2022-09-13T21:36:26.858Z,15.67
2022-09-13T21:38:55.828Z,15.62
2022-09-13T21:41:24.408Z,15.62
2022-09-13T21:43:51.594Z,15.58
2022-09-13T21:46:24.265Z,15.57
2022-09-13T21:48:54.480Z,15.56
2022-09-13T21:51:26.768Z,15.57
2022-09-13T21:53:59.947Z,15.60
2022-09-13T21:56:32.186Z,15.58
2022-09-13T21:59:02.326Z,15.58
2022-09-13T22:01:32.339Z,15.59
2022-09-13T22:03:59.794Z,15.59
2022-09-13T22:06:30.276Z,15.63
2022-09-13T22:09:01.158Z,15.65
2022-09-13T22:11:32.007Z,15.61
2022-09-13T22:14:02.423Z,15.57
2022-09-13T22:16:31.598Z,15.53
2022-09-13T22:19:08.057Z,15.51
2022-09-13T22:21:39.964Z,15.44
2022-09-13T22:24:08.523Z,15.43
2022-09-13T22:26:39.497Z,15.41
2022-09-13T22:29:07.555Z,15.36
2022-09-13T22:31:37.220Z,15.34
2022-09-13T22:34:05.061Z,15.36
2022-09-13T22:36:32.587Z,15.37
2022-09-13T22:39:02.962Z,15.37
2022-09-13T22:41:31.878Z,15.39
2022-09-13T22:43:59.898Z,15.41
2022-09-13T22:46:39.434Z,15.41
2022-09-13T22:49:07.193Z,15.38
2022-09-13T22:51:34.204Z,15.35
2022-09-13T22:54:06.246Z,15.34
2022-09-13T22:56:35.821Z,15.27
2022-09-13T22:59:07.440Z,15.22
2022-09-13T23:01:34.981Z,15.17
2022-09-13T23:04:02.162Z,15.11
2022-09-13T23:06:29.601Z,15.04
2022-09-13T23:09:00.017Z,14.99
2022-09-13T23:11:27.952Z,14.88
2022-09-13T23:13:58.219Z,14.84
2022-09-13T23:16:27.591Z,14.77
2022-09-13T23:18:55.836Z,14.75
2022-09-13T23:21:26.834Z,14.77
2022-09-13T23:23:54.283Z,14.78
2022-09-13T23:26:24.832Z,14.76
2022-09-13T23:28:56.803Z,14.70
2022-09-13T23:31:26.627Z,14.66
2022-09-13T23:33:56.234Z,14.63
2022-09-13T23:36:26.534Z,14.57
2022-09-13T23:38:55.681Z,14.50
2022-09-13T23:41:23.166Z,14.44
2022-09-13T23:43:49.941Z,14.38
2022-09-13T23:46:17.330Z,14.37
2022-09-13T23:48:44.897Z,14.30
2022-09-13T23:51:14.440Z,14.18
2022-09-13T23:53:41.600Z,14.15
2022-09-13T23:56:09.698Z,14.12
2022-09-13T23:58:38.051Z,14.05
